Time;durP1;ratioP1;P1;durP2;ratioP2;P2;SDS_P1;SDS_P2;PMS_P1;PMS_P2;Temp;Humidity;BMP_temperature;BMP_pressure;BME280_temperature;BME280_humidity;BME280_pressure;Samples;Min_cycle;Max_cycle;Signal;HPM_P1;HPM_P2
2023/01/17 00:01:07;;;;;;;7.00;2.80;;;2.50;99.90;;;;;;5067534;28;20043;-40
2023/01/17 00:09:51;;;;;;;4.20;1.55;;;2.60;99.90;;;;;;5068088;28;20486;-40
2023/01/17 00:11:58;;;;;;;3.95;0.77;;;2.60;99.90;;;;;;5067682;28;20052;-40
2023/01/17 00:14:26;;;;;;;5.93;1.13;;;2.70;99.90;;;;;;5049323;28;20391;-40
2023/01/17 00:16:52;;;;;;;4.18;1.10;;;2.70;99.90;;;;;;5067269;28;20714;-40
2023/01/17 01:34:02;;;;;;;6.45;0.20;;;2.10;99.90;;;;;;5066447;28;20167;-40
2023/01/17 01:36:27;;;;;;;3.20;0.20;;;2.00;99.90;;;;;;5065965;28;20143;-40
2023/01/17 01:38:53;;;;;;;3.50;0.50;;;2.20;99.90;;;;;;5066376;28;20055;-41
2023/01/17 01:41:19;;;;;;;5.40;0.20;;;2.10;99.90;;;;;;5066273;28;20059;-41
2023/01/17 01:43:48;;;;;;;5.13;0.57;;;2.00;99.90;;;;;;5065928;28;20536;-41
2023/01/17 01:46:15;;;;;;;5.20;0.20;;;2.00;99.90;;;;;;5066398;28;20143;-42
2023/01/17 01:48:47;;;;;;;6.38;0.32;;;2.00;99.90;;;;;;5066071;28;20700;-41
2023/01/17 01:51:18;;;;;;;4.83;0.27;;;2.00;99.90;;;;;;5066274;28;20056;-41
2023/01/17 01:53:47;;;;;;;6.10;1.00;;;2.00;99.90;;;;;;5066249;28;20056;-41
2023/01/17 01:56:14;;;;;;;2.40;0.28;;;1.90;99.90;;;;;;5047629;28;20394;-41
2023/01/17 01:58:45;;;;;;;6.45;0.20;;;2.00;99.90;;;;;;5066115;28;20115;-41
2023/01/17 02:01:11;;;;;;;7.47;0.22;;;1.90;99.90;;;;;;5066085;28;20173;-41
2023/01/17 02:03:40;;;;;;;3.70;0.17;;;1.90;99.90;;;;;;5065959;28;20398;-41
2023/01/17 02:06:22;;;;;;;4.43;0.20;;;1.90;99.90;;;;;;5066396;28;20078;-41
2023/01/17 02:08:48;;;;;;;9.38;0.20;;;2.00;99.90;;;;;;5065609;28;20098;-41
2023/01/17 02:11:13;;;;;;;4.75;0.10;;;1.90;99.90;;;;;;5065991;28;20601;-40
2023/01/17 02:13:40;;;;;;;5.90;0.10;;;1.80;99.90;;;;;;5065739;28;20032;-41
2023/01/17 02:16:25;;;;;;;5.47;0.22;;;1.90;99.90;;;;;;5066234;28;20040;-41
2023/01/17 02:19:12;;;;;;;4.38;0.20;;;2.00;99.90;;;;;;5065999;28;20155;-41
2023/01/17 02:21:45;;;;;;;8.10;0.57;;;2.00;99.90;;;;;;5067212;28;20056;-41
2023/01/17 02:24:23;;;;;;;5.28;0.10;;;2.00;99.90;;;;;;5069910;28;20043;-41
2023/01/17 02:27:21;;;;;;;4.60;0.10;;;1.80;99.90;;;;;;5069635;28;20044;-41
2023/01/17 02:30:11;;;;;;;6.97;0.30;;;1.90;99.90;;;;;;5069505;28;20040;-41
2023/01/17 02:33:00;;;;;;;4.53;0.20;;;1.80;99.90;;;;;;5069217;28;20086;-40
2023/01/17 02:35:52;;;;;;;7.03;0.52;;;1.80;99.90;;;;;;5068980;28;20040;-40
2023/01/17 02:38:35;;;;;;;9.52;0.30;;;1.70;99.90;;;;;;5069455;28;20087;-41
2023/01/17 02:41:06;;;;;;;8.25;0.63;;;1.70;99.90;;;;;;5070042;28;20366;-40
2023/01/17 02:43:33;;;;;;;10.60;0.37;;;1.50;99.90;;;;;;5069610;28;20044;-40
2023/01/17 02:45:58;;;;;;;6.80;0.95;;;1.60;99.90;;;;;;5069525;28;20040;-40
2023/01/17 02:48:29;;;;;;;5.68;0.20;;;1.60;99.90;;;;;;5069421;28;20109;-41
2023/01/17 02:51:13;;;;;;;6.45;0.30;;;1.60;99.90;;;;;;5069181;28;20055;-41
2023/01/17 02:53:55;;;;;;;9.45;1.15;;;1.60;99.90;;;;;;5069067;28;20052;-40
2023/01/17 02:56:45;;;;;;;7.93;0.82;;;1.70;99.90;;;;;;5069170;28;20072;-40
2023/01/17 02:59:20;;;;;;;5.13;0.52;;;1.70;99.90;;;;;;5069400;28;20089;-40
2023/01/17 03:02:10;;;;;;;12.57;0.47;;;1.70;99.90;;;;;;5068511;28;20048;-40
2023/01/17 03:05:00;;;;;;;6.05;0.60;;;1.70;99.90;;;;;;5068841;28;20159;-40
2023/01/17 03:07:28;;;;;;;8.23;0.43;;;1.60;99.90;;;;;;5068624;28;20098;-41
2023/01/17 03:09:59;;;;;;;8.07;0.40;;;1.60;99.90;;;;;;5068546;28;20048;-40
2023/01/17 03:12:31;;;;;;;4.30;0.45;;;1.70;99.90;;;;;;5068375;28;20116;-40
2023/01/17 03:14:56;;;;;;;4.50;0.30;;;1.70;99.90;;;;;;5068824;28;20066;-40
2023/01/17 03:17:27;;;;;;;5.90;0.20;;;1.70;99.90;;;;;;5068286;28;20037;-40
2023/01/17 03:19:53;;;;;;;8.98;0.40;;;1.70;99.90;;;;;;5068173;28;20068;-40
2023/01/17 03:22:18;;;;;;;4.97;0.22;;;1.70;99.90;;;;;;5068218;28;20052;-40
2023/01/17 03:24:44;;;;;;;6.05;0.30;;;1.80;99.90;;;;;;5050577;28;20131;-41
2023/01/17 03:27:10;;;;;;;4.80;0.22;;;1.70;99.90;;;;;;5068269;28;20080;-41
2023/01/17 03:29:35;;;;;;;8.65;0.52;;;1.80;99.90;;;;;;5050582;28;20052;-40
2023/01/17 03:32:01;;;;;;;4.90;0.20;;;1.80;99.90;;;;;;5068289;28;20036;-40
2023/01/17 03:34:26;;;;;;;8.70;0.47;;;1.90;99.90;;;;;;5066776;28;20542;-40
2023/01/17 03:36:52;;;;;;;11.25;0.50;;;1.80;99.90;;;;;;5068311;28;20090;-40
2023/01/17 03:39:18;;;;;;;9.88;0.40;;;1.80;99.90;;;;;;5068308;28;20040;-40
2023/01/17 03:41:43;;;;;;;7.57;0.40;;;1.80;99.90;;;;;;5068099;28;20040;-40
2023/01/17 03:44:09;;;;;;;6.07;0.40;;;1.70;99.90;;;;;;5068202;28;20131;-40
2023/01/17 03:46:35;;;;;;;10.88;0.52;;;1.70;99.90;;;;;;5050315;28;20056;-40
2023/01/17 03:49:01;;;;;;;9.70;0.68;;;1.70;99.90;;;;;;5068195;28;20079;-40
2023/01/17 03:51:26;;;;;;;12.88;0.60;;;1.70;99.90;;;;;;5068259;28;20425;-40
2023/01/17 03:53:52;;;;;;;5.68;0.40;;;1.60;99.90;;;;;;5067781;28;20446;-40
2023/01/17 03:56:18;;;;;;;10.15;0.65;;;1.60;99.90;;;;;;5067960;28;20044;-40
2023/01/17 03:58:44;;;;;;;3.08;0.50;;;1.70;99.90;;;;;;5067637;28;20037;-40
2023/01/17 04:01:10;;;;;;;10.85;0.45;;;1.60;99.90;;;;;;5068058;28;20047;-40
2023/01/17 04:03:37;;;;;;;6.43;0.47;;;1.60;99.90;;;;;;5067682;28;20508;-40
2023/01/17 04:06:02;;;;;;;10.93;0.60;;;1.60;99.90;;;;;;5067141;28;20055;-40
2023/01/17 04:08:29;;;;;;;8.52;0.95;;;1.70;99.90;;;;;;5067191;28;20151;-40
2023/01/17 04:10:55;;;;;;;9.80;0.38;;;1.60;99.90;;;;;;5067095;28;20098;-40
2023/01/17 04:13:21;;;;;;;8.40;0.30;;;1.50;99.90;;;;;;5067552;28;20445;-40
2023/01/17 04:15:49;;;;;;;6.93;0.60;;;1.50;99.90;;;;;;5067439;28;20175;-40
2023/01/17 04:18:17;;;;;;;2.78;0.50;;;1.40;99.90;;;;;;5067369;28;20129;-40
2023/01/17 04:20:43;;;;;;;5.82;0.20;;;1.30;99.90;;;;;;5067019;28;20617;-40
2023/01/17 04:23:08;;;;;;;10.55;0.63;;;1.20;99.90;;;;;;5066929;28;20059;-40
2023/01/17 04:25:34;;;;;;;8.13;0.30;;;1.20;99.90;;;;;;5067558;28;20059;-40
2023/01/17 04:28:02;;;;;;;6.03;0.30;;;1.10;99.90;;;;;;5066684;28;20051;-40
2023/01/17 04:30:29;;;;;;;7.13;0.45;;;1.00;99.90;;;;;;5066975;28;20390;-40
2023/01/17 04:32:54;;;;;;;4.50;0.20;;;1.00;99.90;;;;;;5066780;28;20044;-40
2023/01/17 04:35:20;;;;;;;4.05;0.30;;;0.90;99.90;;;;;;5067248;28;20147;-40
2023/01/17 04:37:46;;;;;;;5.15;0.20;;;0.90;99.90;;;;;;5067092;28;20037;-40
2023/01/17 04:40:13;;;;;;;7.30;0.95;;;0.90;99.90;;;;;;5067381;28;20093;-40
2023/01/17 04:42:38;;;;;;;6.75;0.20;;;0.80;99.90;;;;;;5067768;28;20811;-40
2023/01/17 04:45:05;;;;;;;4.47;0.60;;;0.70;99.90;;;;;;5066754;28;20106;-40
2023/01/17 04:47:33;;;;;;;10.43;0.55;;;0.80;99.90;;;;;;5066989;28;20048;-40
2023/01/17 04:49:59;;;;;;;7.47;0.20;;;0.70;99.90;;;;;;5066779;28;20075;-40
2023/01/17 04:52:24;;;;;;;3.28;0.25;;;0.70;99.90;;;;;;5066758;28;20858;-40
2023/01/17 04:54:51;;;;;;;6.78;0.43;;;0.70;99.90;;;;;;5067103;28;20113;-40
2023/01/17 04:57:17;;;;;;;4.30;0.20;;;0.70;99.90;;;;;;5066614;28;20044;-40
2023/01/17 04:59:44;;;;;;;7.90;0.40;;;0.70;99.90;;;;;;5067198;28;20033;-40
2023/01/17 05:02:11;;;;;;;7.05;0.22;;;0.70;99.90;;;;;;5066564;28;20124;-40
2023/01/17 05:04:37;;;;;;;11.63;0.65;;;0.70;99.90;;;;;;5067469;28;20079;-40
2023/01/17 05:07:03;;;;;;;8.25;0.93;;;0.60;99.90;;;;;;5066979;28;20079;-40
2023/01/17 05:09:28;;;;;;;6.03;1.52;;;0.70;99.90;;;;;;5066648;28;20048;-40
2023/01/17 05:11:57;;;;;;;8.60;0.47;;;0.60;99.90;;;;;;5067081;28;20040;-40
2023/01/17 05:14:25;;;;;;;10.45;0.90;;;0.50;99.90;;;;;;5066684;28;20040;-40
2023/01/17 05:16:57;;;;;;;9.38;0.88;;;0.40;99.90;;;;;;5049170;28;20967;-40
2023/01/17 05:19:24;;;;;;;6.82;0.17;;;0.60;99.90;;;;;;5066772;28;20060;-40
2023/01/17 05:21:50;;;;;;;5.80;0.47;;;0.40;99.90;;;;;;5067112;28;20040;-40
2023/01/17 05:24:17;;;;;;;8.60;0.73;;;0.40;99.90;;;;;;5066466;28;20576;-40
2023/01/17 05:26:43;;;;;;;5.53;0.30;;;0.20;99.90;;;;;;5066559;28;20052;-40
2023/01/17 05:29:10;;;;;;;11.70;1.25;;;0.30;99.90;;;;;;5066655;28;20146;-40
2023/01/17 05:31:36;;;;;;;8.07;0.13;;;1.80;99.90;;;;;;5067129;28;20044;-40
2023/01/17 05:34:02;;;;;;;7.72;1.02;;;0.10;99.90;;;;;;5066155;28;20076;-40
2023/01/17 05:36:28;;;;;;;11.65;0.68;;;0.00;99.90;;;;;;5066847;28;20052;-40
2023/01/17 05:38:54;;;;;;;10.65;0.32;;;0.00;99.90;;;;;;5067057;28;20044;-41
2023/01/17 05:41:19;;;;;;;7.25;0.30;;;0.00;99.90;;;;;;5066396;28;20495;-40
2023/01/17 05:43:45;;;;;;;6.07;0.45;;;0.00;99.90;;;;;;5066898;28;20045;-40
2023/01/17 05:46:11;;;;;;;6.90;0.20;;;0.00;99.90;;;;;;5066897;28;20787;-40
2023/01/17 05:48:36;;;;;;;5.65;0.30;;;-0.10;99.90;;;;;;5066728;28;20362;-40
2023/01/17 05:51:02;;;;;;;5.65;0.43;;;-0.10;99.90;;;;;;5066068;28;20041;-40
2023/01/17 05:53:28;;;;;;;1.65;0.22;;;-0.20;99.90;;;;;;5066514;28;20051;-40
2023/01/17 05:55:53;;;;;;;6.47;0.30;;;0.00;99.90;;;;;;5066477;28;20040;-40
2023/01/17 05:58:20;;;;;;;6.35;0.95;;;-0.10;99.90;;;;;;5069960;28;20036;-40
2023/01/17 06:00:47;;;;;;;3.92;0.15;;;-0.10;99.90;;;;;;5069637;28;20079;-40
2023/01/17 06:03:13;;;;;;;6.25;0.10;;;-0.10;99.90;;;;;;5070070;28;20044;-40
2023/01/17 06:05:40;;;;;;;4.93;0.10;;;-0.10;99.90;;;;;;5070376;28;20075;-40
2023/01/17 06:08:06;;;;;;;6.03;0.10;;;0.00;99.90;;;;;;5069933;28;20094;-40
2023/01/17 06:10:32;;;;;;;6.40;0.35;;;-0.20;99.90;;;;;;5070172;28;20117;-40
2023/01/17 06:13:13;;;;;;;5.88;1.02;;;-0.20;99.90;;;;;;5070290;28;20044;-40
2023/01/17 06:15:39;;;;;;;2.45;0.22;;;-0.30;99.90;;;;;;5070375;28;20047;-40
2023/01/17 06:18:10;;;;;;;2.72;0.10;;;-0.30;99.90;;;;;;5070368;28;20032;-40
2023/01/17 06:20:38;;;;;;;4.03;0.20;;;-0.40;99.90;;;;;;5069844;28;20056;-40
2023/01/17 06:23:06;;;;;;;3.97;0.10;;;-0.50;99.90;;;;;;5070129;28;20080;-40
2023/01/17 06:25:40;;;;;;;0.93;0.10;;;-0.50;99.90;;;;;;5069897;28;20048;-40
2023/01/17 06:28:06;;;;;;;4.93;0.20;;;-0.30;99.90;;;;;;5070130;28;20095;-40
2023/01/17 06:30:33;;;;;;;2.83;0.13;;;-0.40;99.90;;;;;;5069786;28;20547;-40
2023/01/17 06:32:58;;;;;;;3.40;0.10;;;-0.50;99.90;;;;;;5069981;28;20044;-40
2023/01/17 06:35:24;;;;;;;6.10;1.48;;;-0.40;99.90;;;;;;5069272;28;20047;-40
2023/01/17 06:37:54;;;;;;;5.00;0.40;;;-0.50;99.90;;;;;;5069554;28;20441;-40
2023/01/17 06:40:27;;;;;;;6.25;0.20;;;-0.40;99.90;;;;;;5069638;28;20037;-40
2023/01/17 06:42:53;;;;;;;7.93;0.22;;;-0.40;99.90;;;;;;5069671;28;20048;-40
2023/01/17 06:45:19;;;;;;;3.85;0.20;;;-0.40;99.90;;;;;;5069153;28;20047;-40
2023/01/17 06:47:45;;;;;;;4.30;0.38;;;-0.50;99.90;;;;;;5069236;28;20094;-40
2023/01/17 06:50:13;;;;;;;3.30;0.25;;;-0.40;99.90;;;;;;5068787;28;20057;-40
2023/01/17 06:52:40;;;;;;;4.70;0.40;;;-0.30;99.90;;;;;;5069149;28;20040;-40
2023/01/17 06:55:07;;;;;;;5.57;0.20;;;-0.30;99.90;;;;;;5068545;28;20481;-40
2023/01/17 06:57:32;;;;;;;4.95;0.73;;;-0.40;99.90;;;;;;5068616;28;20090;-40
2023/01/17 06:59:58;;;;;;;8.70;0.20;;;-0.30;99.90;;;;;;5069142;28;20048;-40
2023/01/17 07:02:24;;;;;;;4.80;0.20;;;-0.20;99.90;;;;;;5068856;28;20039;-40
2023/01/17 07:04:49;;;;;;;6.80;0.95;;;-0.50;99.90;;;;;;5068855;28;20123;-40
2023/01/17 07:07:15;;;;;;;4.15;0.40;;;-0.30;99.90;;;;;;5068262;28;20051;-40
2023/01/17 07:09:41;;;;;;;2.30;0.47;;;-0.20;99.90;;;;;;5067866;28;20536;-40
2023/01/17 07:12:07;;;;;;;5.90;0.20;;;-0.30;99.90;;;;;;5068645;28;20033;-40
2023/01/17 07:14:32;;;;;;;3.55;0.20;;;-0.30;99.90;;;;;;5050262;28;20837;-40
2023/01/17 07:16:58;;;;;;;5.82;0.20;;;-0.30;99.90;;;;;;5068399;28;20079;-40
2023/01/17 07:19:23;;;;;;;3.85;0.30;;;-0.40;99.90;;;;;;5067935;28;20060;-40
2023/01/17 07:21:51;;;;;;;3.25;0.20;;;-0.10;99.90;;;;;;5068450;28;20481;-40
2023/01/17 07:24:17;;;;;;;7.43;0.22;;;-0.40;99.90;;;;;;5068144;28;20047;-39
2023/01/17 07:26:43;;;;;;;7.55;0.35;;;0.30;99.90;;;;;;5068416;28;20118;-40
2023/01/17 07:29:09;;;;;;;5.30;0.30;;;-0.50;99.90;;;;;;5068090;28;20044;-45
2023/01/17 07:31:35;;;;;;;4.30;0.28;;;-0.50;99.90;;;;;;5060241;28;20049;-37
2023/01/17 07:34:02;;;;;;;7.18;0.95;;;-0.50;99.90;;;;;;5063268;28;20781;-37
2023/01/17 07:36:27;;;;;;;4.03;0.30;;;-0.30;99.90;;;;;;5065805;28;20076;-36
2023/01/17 07:38:54;;;;;;;4.88;0.20;;;-0.30;99.90;;;;;;5066007;28;20079;-39
2023/01/17 07:41:20;;;;;;;7.20;0.20;;;-0.10;99.90;;;;;;5064040;28;20058;-40
2023/01/17 07:43:46;;;;;;;3.67;0.30;;;-0.30;99.90;;;;;;5047796;28;20029;-39
2023/01/17 07:46:14;;;;;;;3.90;0.22;;;-0.20;99.90;;;;;;5065701;28;20046;-38
2023/01/17 07:48:40;;;;;;;10.48;0.60;;;-0.10;99.90;;;;;;5065873;28;20047;-43
2023/01/17 07:51:07;;;;;;;6.53;0.30;;;-0.20;99.90;;;;;;5065655;28;20044;-37
2023/01/17 07:53:33;;;;;;;2.75;0.20;;;-0.20;99.90;;;;;;5047152;28;20100;-38
2023/01/17 07:56:04;;;;;;;6.22;0.20;;;-0.20;99.90;;;;;;5047536;28;20045;-37
2023/01/17 07:58:30;;;;;;;6.68;0.20;;;-0.50;99.90;;;;;;5065283;28;20047;-37
2023/01/17 08:01:10;;;;;;;5.35;0.40;;;-0.20;99.90;;;;;;5063872;28;20127;-38
2023/01/17 08:03:38;;;;;;;3.25;0.85;;;0.40;99.90;;;;;;5065657;28;20083;-39
2023/01/17 08:06:16;;;;;;;4.65;0.50;;;-0.10;99.90;;;;;;5065488;28;20055;-39
2023/01/17 08:08:41;;;;;;;4.82;0.22;;;-0.20;99.90;;;;;;5065065;28;20048;-40
2023/01/17 08:11:07;;;;;;;19.30;2.00;;;0.00;99.90;;;;;;5046787;28;20097;-37
2023/01/17 08:13:33;;;;;;;4.82;0.30;;;0.00;99.90;;;;;;5067015;28;20086;-37
2023/01/17 08:16:01;;;;;;;2.97;0.30;;;0.00;99.90;;;;;;5066886;28;20119;-37
2023/01/17 08:18:27;;;;;;;5.63;0.20;;;0.60;99.90;;;;;;5066635;28;20577;-37
2023/01/17 08:20:53;;;;;;;8.38;0.73;;;0.00;99.90;;;;;;5065481;28;20147;-37
2023/01/17 08:23:19;;;;;;;7.10;0.20;;;0.00;99.90;;;;;;5066601;28;20166;-37
2023/01/17 08:25:45;;;;;;;9.32;0.50;;;0.10;99.90;;;;;;5066116;28;20498;-37
2023/01/17 08:28:10;;;;;;;4.68;0.32;;;0.10;99.90;;;;;;5066670;28;20058;-37
2023/01/17 08:30:36;;;;;;;4.35;0.35;;;0.10;99.90;;;;;;5066357;28;20052;-37
2023/01/17 08:33:02;;;;;;;4.05;0.30;;;0.10;99.90;;;;;;5066636;28;20040;-37
2023/01/17 08:35:28;;;;;;;6.28;0.30;;;-0.10;99.90;;;;;;5066253;28;20041;-37
2023/01/17 08:37:55;;;;;;;4.50;1.08;;;0.10;99.90;;;;;;5066301;28;20115;-37
2023/01/17 08:40:21;;;;;;;6.82;0.20;;;0.10;99.90;;;;;;5065884;28;20659;-37
2023/01/17 08:42:58;;;;;;;2.72;0.10;;;0.10;99.90;;;;;;5066098;28;20428;-37
2023/01/17 08:45:24;;;;;;;4.32;0.20;;;0.10;99.90;;;;;;5066495;28;20084;-37
2023/01/17 08:47:51;;;;;;;8.32;0.30;;;0.10;99.90;;;;;;5066019;28;20077;-37
2023/01/17 08:50:20;;;;;;;4.57;0.30;;;0.10;99.90;;;;;;5066535;28;20132;-37
2023/01/17 08:52:47;;;;;;;3.45;0.35;;;0.20;99.90;;;;;;5066468;28;20426;-37
2023/01/17 08:55:13;;;;;;;6.20;0.35;;;0.20;99.90;;;;;;5066546;28;20045;-37
2023/01/17 08:57:38;;;;;;;8.77;0.32;;;0.00;99.90;;;;;;5065809;28;20051;-37
2023/01/17 09:00:06;;;;;;;2.63;0.20;;;0.20;99.90;;;;;;5066055;28;20070;-37
2023/01/17 09:02:32;;;;;;;5.47;0.35;;;0.00;99.90;;;;;;5065667;28;20052;-37
2023/01/17 09:04:59;;;;;;;5.35;0.60;;;0.10;99.90;;;;;;5065325;28;20050;-37
2023/01/17 09:07:25;;;;;;;9.82;1.55;;;0.20;99.90;;;;;;5065693;28;20048;-37
2023/01/17 09:09:51;;;;;;;4.03;0.30;;;0.10;99.90;;;;;;5065467;28;20080;-37
2023/01/17 09:12:19;;;;;;;10.45;1.17;;;0.60;99.90;;;;;;5065826;28;20072;-37
2023/01/17 09:14:45;;;;;;;7.22;0.30;;;0.40;99.90;;;;;;5066086;28;20080;-37
2023/01/17 09:17:10;;;;;;;5.57;0.30;;;0.10;99.90;;;;;;5066575;28;20075;-37
2023/01/17 09:19:40;;;;;;;5.00;0.50;;;0.20;99.90;;;;;;5065690;28;20076;-37
2023/01/17 09:22:06;;;;;;;2.42;0.20;;;0.20;99.90;;;;;;5065571;28;20559;-37
2023/01/17 09:24:32;;;;;;;3.22;0.30;;;0.20;99.90;;;;;;5066335;28;20482;-37
2023/01/17 09:26:58;;;;;;;6.75;0.30;;;0.20;99.90;;;;;;5066138;28;20509;-37
2023/01/17 09:29:24;;;;;;;6.22;0.40;;;0.20;99.90;;;;;;5047845;28;20056;-37
2023/01/17 09:31:50;;;;;;;6.68;0.20;;;0.30;99.90;;;;;;5062783;28;20044;-37
2023/01/17 09:34:17;;;;;;;3.80;0.30;;;0.40;99.90;;;;;;5062672;28;20036;-36
2023/01/17 09:36:43;;;;;;;3.95;0.40;;;0.20;99.90;;;;;;5062083;28;20040;-37
2023/01/17 09:39:10;;;;;;;5.68;0.50;;;0.30;99.90;;;;;;5062728;28;20580;-37
2023/01/17 09:41:45;;;;;;;1.60;0.40;;;0.10;99.90;;;;;;5062416;28;20550;-36
2023/01/17 09:44:26;;;;;;;4.25;0.55;;;0.20;99.90;;;;;;5062817;28;20145;-36
2023/01/17 09:46:57;;;;;;;7.07;0.43;;;0.20;99.90;;;;;;5062594;28;20052;-37
2023/01/17 09:49:34;;;;;;;9.90;0.50;;;0.50;99.90;;;;;;5062537;28;20036;-37
2023/01/17 09:52:00;;;;;;;9.07;1.42;;;0.40;99.90;;;;;;5062822;28;20408;-37
2023/01/17 09:54:34;;;;;;;4.95;0.38;;;0.40;99.90;;;;;;5062825;28;20032;-37
2023/01/17 09:57:02;;;;;;;5.03;0.60;;;0.40;99.90;;;;;;5062408;28;20054;-37
2023/01/17 09:59:32;;;;;;;7.93;1.95;;;0.50;99.90;;;;;;5062339;28;20036;-37
2023/01/17 10:01:58;;;;;;;4.80;0.40;;;0.50;99.90;;;;;;5062805;28;20041;-38
2023/01/17 10:04:41;;;;;;;5.85;0.38;;;0.90;99.90;;;;;;5062636;28;20041;-38
2023/01/17 10:07:16;;;;;;;3.10;0.50;;;0.50;99.90;;;;;;5062725;28;20055;-38
2023/01/17 10:09:57;;;;;;;5.50;0.65;;;0.80;99.90;;;;;;5062159;28;20053;-37
2023/01/17 10:12:34;;;;;;;6.70;0.65;;;0.70;99.90;;;;;;5062406;28;20045;-37
2023/01/17 10:15:10;;;;;;;4.22;0.50;;;0.80;99.90;;;;;;5062522;28;20360;-37
2023/01/17 10:18:18;;;;;;;8.05;0.50;;;1.10;99.90;;;;;;5062496;28;20079;-37
2023/01/17 10:21:13;;;;;;;5.95;1.25;;;1.00;99.90;;;;;;5031924;28;20064;-38
2023/01/17 10:24:31;;;;;;;5.57;0.60;;;0.90;99.90;;;;;;5062581;28;20051;-38
2023/01/17 10:26:59;;;;;;;5.07;0.90;;;1.10;99.90;;;;;;5026547;28;20582;-37
2023/01/17 10:29:31;;;;;;;4.32;0.80;;;1.20;99.90;;;;;;5042630;28;20530;-38
2023/01/17 10:32:01;;;;;;;7.53;1.05;;;1.30;99.90;;;;;;5061571;28;20036;-38
2023/01/17 10:34:29;;;;;;;7.75;0.82;;;1.50;99.90;;;;;;5061120;28;20076;-37
2023/01/17 10:37:05;;;;;;;9.38;2.63;;;1.90;99.90;;;;;;5061322;28;20068;-37
2023/01/17 10:39:31;;;;;;;5.25;1.08;;;1.80;99.90;;;;;;5061505;28;20087;-37
2023/01/17 10:42:01;;;;;;;7.07;1.00;;;1.90;99.90;;;;;;5061923;28;20045;-38
2023/01/17 10:44:48;;;;;;;4.40;0.82;;;1.90;99.90;;;;;;5064724;28;20048;-37
2023/01/17 10:47:20;;;;;;;5.25;0.80;;;2.00;99.90;;;;;;5065057;28;20721;-39
2023/01/17 10:49:48;;;;;;;10.82;1.38;;;2.00;99.90;;;;;;5058873;28;20056;-42
2023/01/17 10:52:32;;;;;;;3.60;1.10;;;2.00;99.90;;;;;;5057612;28;20051;-39
2023/01/17 10:55:10;;;;;;;8.93;0.90;;;2.00;99.90;;;;;;5061297;28;20701;-43
2023/01/17 10:57:47;;;;;;;3.28;0.50;;;2.00;99.90;;;;;;5043516;28;20036;-45
2023/01/17 11:00:26;;;;;;;4.15;0.82;;;2.30;99.90;;;;;;5063271;28;20447;-46
2023/01/17 11:02:52;;;;;;;10.85;0.82;;;2.30;99.90;;;;;;5063836;28;20048;-44
2023/01/17 11:05:24;;;;;;;5.82;0.63;;;3.20;99.90;;;;;;5063708;28;20047;-45
2023/01/17 11:08:01;;;;;;;4.70;0.60;;;2.50;99.90;;;;;;5063346;28;20136;-44
2023/01/17 11:10:49;;;;;;;4.10;0.60;;;2.30;99.90;;;;;;5063587;28;20049;-44
2023/01/17 11:13:37;;;;;;;4.60;0.50;;;2.30;99.90;;;;;;5064236;28;20055;-45
2023/01/17 11:16:05;;;;;;;5.97;0.60;;;2.40;99.90;;;;;;5064927;28;20087;-46
2023/01/17 11:18:39;;;;;;;2.53;0.80;;;2.20;99.90;;;;;;5062985;28;20044;-46
2023/01/17 11:21:16;;;;;;;5.00;0.60;;;2.30;99.90;;;;;;5063883;28;20082;-44
2023/01/17 11:23:45;;;;;;;7.22;2.05;;;2.30;99.90;;;;;;5064589;28;20059;-38
2023/01/17 11:26:33;;;;;;;5.78;0.70;;;2.60;99.90;;;;;;5062470;28;20132;-39
2023/01/17 11:29:37;;;;;;;5.18;0.75;;;2.30;99.90;;;;;;5038972;28;20478;-39
2023/01/17 11:32:21;;;;;;;3.72;0.85;;;2.40;99.90;;;;;;5043939;28;20056;-39
2023/01/17 11:35:14;;;;;;;2.78;0.40;;;2.50;99.90;;;;;;5062826;28;20044;-39
2023/01/17 11:37:47;;;;;;;3.28;0.40;;;2.40;99.90;;;;;;5063710;28;20048;-38
2023/01/17 11:40:27;;;;;;;5.13;0.50;;;2.50;99.90;;;;;;5062964;28;20041;-39
2023/01/17 11:43:25;;;;;;;5.00;0.50;;;2.60;99.90;;;;;;5044779;28;20045;-39
2023/01/17 11:46:14;;;;;;;4.25;0.90;;;2.60;99.90;;;;;;5028211;28;20156;-38
2023/01/17 11:48:40;;;;;;;7.93;0.57;;;2.50;99.90;;;;;;5043198;28;20037;-39
2023/01/17 11:51:24;;;;;;;7.90;0.70;;;2.60;99.90;;;;;;5060870;28;20513;-39
2023/01/17 11:53:53;;;;;;;7.25;1.05;;;2.50;99.90;;;;;;5042466;28;20135;-41
2023/01/17 11:56:32;;;;;;;5.15;0.70;;;2.50;99.90;;;;;;5044145;28;20048;-43
2023/01/17 11:59:21;;;;;;;7.20;0.63;;;2.40;99.90;;;;;;5065137;28;20040;-40
2023/01/17 12:01:49;;;;;;;5.47;1.45;;;2.70;99.90;;;;;;5065515;28;20048;-40
2023/01/17 12:04:35;;;;;;;7.15;0.40;;;2.80;99.90;;;;;;5065073;28;20045;-40
2023/01/17 12:07:39;;;;;;;2.92;0.60;;;2.60;99.90;;;;;;5065078;28;20043;-39
2023/01/17 12:10:16;;;;;;;4.70;0.70;;;2.50;99.90;;;;;;5064639;28;20110;-40
2023/01/17 12:14:08;;;;;;;6.25;0.45;;;2.60;99.90;;;;;;5065143;28;20101;-38
2023/01/17 12:16:27;;;;;;;4.68;0.40;;;2.50;99.90;;;;;;5047928;28;20478;-37
2023/01/17 12:19:23;;;;;;;5.63;0.65;;;2.50;99.90;;;;;;5064774;28;20052;-37
2023/01/17 12:22:15;;;;;;;8.93;2.28;;;2.40;99.90;;;;;;5064935;28;20048;-39
2023/01/17 12:24:46;;;;;;;4.35;0.75;;;2.70;99.90;;;;;;5066228;28;20051;-40
2023/01/17 12:27:30;;;;;;;6.78;0.82;;;2.60;99.90;;;;;;5064946;28;20080;-40
2023/01/17 12:30:29;;;;;;;6.43;1.17;;;2.60;99.90;;;;;;5066026;28;20121;-42
2023/01/17 12:33:22;;;;;;;5.80;1.23;;;2.60;99.90;;;;;;5065556;28;20033;-39
2023/01/17 12:35:56;;;;;;;6.63;0.90;;;2.50;99.90;;;;;;5065823;28;20536;-40
2023/01/17 12:38:31;;;;;;;8.80;0.95;;;2.80;99.90;;;;;;5065866;28;20096;-42
2023/01/17 12:41:11;;;;;;;6.63;1.13;;;2.60;99.90;;;;;;5047550;28;20055;-42
2023/01/17 12:43:39;;;;;;;4.85;0.80;;;3.60;99.90;;;;;;5064661;28;20066;-43
2023/01/17 12:46:22;;;;;;;7.85;0.98;;;3.40;99.90;;;;;;5064474;28;20040;-41
2023/01/17 12:48:57;;;;;;;8.07;1.40;;;2.70;99.90;;;;;;5043765;28;20178;-40
2023/01/17 12:51:37;;;;;;;8.30;1.58;;;2.70;99.90;;;;;;5063747;28;20390;-40
2023/01/17 12:54:18;;;;;;;6.38;0.70;;;3.50;99.90;;;;;;5046086;28;20458;-39
2023/01/17 12:56:55;;;;;;;10.18;1.15;;;2.80;99.90;;;;;;5063661;28;20036;-40
2023/01/17 12:59:57;;;;;;;5.15;0.85;;;3.00;99.90;;;;;;5061247;28;20079;-39
2023/01/17 13:02:43;;;;;;;4.20;0.77;;;2.70;99.90;;;;;;5063394;28;20101;-40
2023/01/17 13:05:23;;;;;;;3.85;0.60;;;2.90;99.90;;;;;;5063135;28;20044;-42
2023/01/17 13:08:01;;;;;;;10.18;1.73;;;3.00;99.90;;;;;;5064131;28;20624;-40
2023/01/17 13:10:58;;;;;;;3.88;0.47;;;3.20;99.90;;;;;;5063784;28;20079;-40
2023/01/17 13:13:29;;;;;;;3.45;0.60;;;3.40;99.90;;;;;;5031257;28;20125;-41
2023/01/17 13:16:05;;;;;;;4.63;0.98;;;3.50;99.90;;;;;;5063999;28;20036;-40
2023/01/17 13:18:32;;;;;;;5.18;0.55;;;3.70;99.90;;;;;;5063704;28;20517;-40
2023/01/17 13:21:09;;;;;;;6.97;0.40;;;3.70;99.90;;;;;;5063320;28;20127;-39
2023/01/17 13:23:51;;;;;;;1.95;0.20;;;3.60;99.90;;;;;;5028997;28;20063;-40
2023/01/17 13:26:45;;;;;;;5.78;0.32;;;4.20;99.90;;;;;;5063568;28;20048;-41
2023/01/17 13:29:43;;;;;;;3.58;0.20;;;3.00;99.90;;;;;;5062778;28;20356;-40
2023/01/17 13:32:50;;;;;;;2.45;0.57;;;2.70;99.90;;;;;;5039610;28;20062;-41
2023/01/17 13:35:23;;;;;;;1.13;0.10;;;2.50;99.90;;;;;;5046146;28;20419;-40
2023/01/17 13:38:25;;;;;;;3.10;0.15;;;2.30;99.90;;;;;;5065125;28;20409;-40
2023/01/17 13:41:26;;;;;;;3.28;0.30;;;2.10;99.90;;;;;;5065056;28;20056;-40
2023/01/17 13:47:17;;;;;;;2.00;0.10;;;1.80;99.90;;;;;;5064110;28;20478;-46
2023/01/17 13:49:44;;;;;;;2.40;0.17;;;1.80;99.90;;;;;;4982122;28;20530;-41
2023/01/17 13:52:27;;;;;;;1.63;0.10;;;1.70;99.90;;;;;;5035900;28;20049;-37
2023/01/17 13:55:01;;;;;;;2.40;0.20;;;1.60;99.90;;;;;;5063809;28;20049;-37
2023/01/17 13:57:31;;;;;;;0.80;0.10;;;1.60;99.90;;;;;;5063322;28;20812;-37
2023/01/17 14:00:15;;;;;;;3.67;0.28;;;1.50;99.90;;;;;;5063087;28;20044;-37
2023/01/17 14:02:42;;;;;;;3.78;0.10;;;1.50;99.90;;;;;;5063332;28;20036;-37
2023/01/17 14:05:20;;;;;;;2.25;0.30;;;1.50;99.90;;;;;;5063380;28;20059;-38
2023/01/17 14:07:54;;;;;;;1.15;0.10;;;1.50;99.90;;;;;;5062912;28;20186;-42
2023/01/17 14:10:31;;;;;;;4.97;0.10;;;1.60;99.90;;;;;;5063069;28;20049;-41
2023/01/17 14:12:57;;;;;;;2.60;0.20;;;1.60;99.90;;;;;;5063193;28;20094;-36
2023/01/17 14:15:28;;;;;;;5.05;0.47;;;1.70;99.90;;;;;;5063301;28;20044;-39
2023/01/17 14:18:02;;;;;;;2.80;0.20;;;1.70;99.90;;;;;;5046762;28;20486;-40
2023/01/17 14:20:38;;;;;;;5.25;0.52;;;1.70;99.90;;;;;;5067081;28;20386;-39
2023/01/17 14:23:23;;;;;;;2.50;0.10;;;1.80;99.90;;;;;;5066739;28;20040;-37
2023/01/17 14:25:50;;;;;;;5.85;0.75;;;2.30;99.90;;;;;;5067284;28;20048;-38
2023/01/17 14:28:25;;;;;;;3.03;0.10;;;1.80;99.90;;;;;;5049049;28;20053;-39
2023/01/17 14:30:55;;;;;;;3.53;0.20;;;1.70;99.90;;;;;;5067174;28;20048;-41
2023/01/17 14:33:35;;;;;;;0.70;0.10;;;1.70;99.90;;;;;;5066663;28;20079;-39
2023/01/17 14:36:13;;;;;;;1.05;0.10;;;1.40;99.90;;;;;;5067021;28;20079;-40
2023/01/17 14:38:43;;;;;;;3.33;0.10;;;1.60;99.90;;;;;;5066658;28;20044;-40
2023/01/17 14:41:18;;;;;;;2.47;0.05;;;1.60;99.90;;;;;;5048707;28;20056;-39
2023/01/17 14:43:46;;;;;;;1.73;0.00;;;1.80;99.90;;;;;;5068575;28;20037;-40
2023/01/17 14:46:25;;;;;;;1.48;0.20;;;1.60;99.90;;;;;;5067784;28;20053;-38